Time;durP1;ratioP1;P1;durP2;ratioP2;P2;SDS_P1;SDS_P2;PMS_P1;PMS_P2;Temp;Humidity;BMP_temperature;BMP_pressure;BME280_temperature;BME280_humidity;BME280_pressure;Samples;Min_cycle;Max_cycle;Signal;HPM_P1;HPM_P2
2023/11/26 00:00:39;;;;;;;;;6.75;6.75;;;;;11.28;94.55;101368.34;2105611;27;46363;-58
2023/11/26 00:01:41;;;;;;;;;8.25;7.50;;;;;11.28;94.47;101366.56;2105651;27;46530;-61
2023/11/26 00:02:41;;;;;;;;;7.60;7.60;;;;;11.29;94.41;101364.78;2105586;28;46602;-60
2023/11/26 00:03:41;;;;;;;;;8.00;6.75;;;;;11.29;94.63;101368.31;2105573;27;46687;-58
2023/11/26 00:04:42;;;;;;;;;5.00;5.00;;;;;11.30;94.60;101370.06;2105499;28;46499;-61
2023/11/26 00:05:42;;;;;;;;;7.50;7.50;;;;;11.26;94.35;101365.72;2105515;27;46315;-61
2023/11/26 00:06:45;;;;;;;;;7.25;6.75;;;;;11.23;94.44;101373.75;2104998;28;46240;-60
2023/11/26 00:07:46;;;;;;;;;5.00;5.00;;;;;11.20;94.84;101372.00;2104801;28;46525;-59
2023/11/26 00:08:46;;;;;;;;;8.25;7.00;;;;;11.19;94.80;101374.69;2104211;27;46595;-60
2023/11/26 00:09:46;;;;;;;;;9.25;9.25;;;;;11.20;94.95;101371.13;2105486;28;46632;-58
2023/11/26 00:10:47;;;;;;;;;7.50;7.00;;;;;11.23;95.18;101372.88;2103849;28;46326;-60
2023/11/26 00:11:47;;;;;;;;;6.50;6.50;;;;;11.23;94.98;101368.44;2104886;28;46749;-60
2023/11/26 00:12:47;;;;;;;;;7.00;6.50;;;;;11.22;94.79;101372.00;2105376;28;45570;-61
2023/11/26 00:13:48;;;;;;;;;7.75;6.75;;;;;11.21;94.53;101370.22;2105955;28;46898;-61
2023/11/26 00:14:49;;;;;;;;;6.50;6.50;;;;;11.20;94.66;101368.47;2095408;28;46620;-61
2023/11/26 00:15:49;;;;;;;;;7.25;7.25;;;;;11.22;94.88;101371.09;2096510;28;46518;-60
2023/11/26 00:16:49;;;;;;;;;8.00;8.00;;;;;11.22;94.66;101381.75;2105113;27;46263;-61
2023/11/26 00:17:50;;;;;;;;;8.00;6.75;;;;;11.22;94.94;101379.09;2105565;27;46532;-60
2023/11/26 00:18:50;;;;;;;;;8.00;6.25;;;;;11.21;94.76;101380.84;2105598;27;46251;-59
2023/11/26 00:19:50;;;;;;;;;8.00;8.00;;;;;11.20;94.69;101373.78;2104700;27;47243;-59
2023/11/26 00:20:51;;;;;;;;;6.75;6.50;;;;;11.19;94.71;101378.22;2102725;28;46293;-60
2023/11/26 00:21:51;;;;;;;;;6.00;6.00;;;;;11.19;94.55;101383.53;2104631;28;46616;-59
2023/11/26 00:22:51;;;;;;;;;8.50;7.00;;;;;11.15;94.68;101373.84;2104619;28;46994;-61
2023/11/26 00:23:52;;;;;;;;;6.75;6.25;;;;;11.17;94.85;101371.16;2105496;28;46165;-60
2023/11/26 00:24:52;;;;;;;;;8.00;8.00;;;;;11.17;95.12;101371.16;2099319;27;46482;-57
2023/11/26 00:25:53;;;;;;;;;8.00;7.00;;;;;11.14;94.96;101361.44;2104317;28;46481;-61
2023/11/26 00:26:53;;;;;;;;;6.20;6.20;;;;;11.17;95.06;101376.47;2105602;27;46487;-62
2023/11/26 00:27:54;;;;;;;;;6.00;6.00;;;;;11.16;95.21;101372.94;2105026;28;46230;-61
2023/11/26 00:28:54;;;;;;;;;9.25;8.50;;;;;11.17;94.92;101373.81;2103680;28;46835;-60
2023/11/26 00:29:55;;;;;;;;;9.00;7.00;;;;;11.16;95.21;101370.28;2104112;28;46927;-60
2023/11/26 00:30:55;;;;;;;;;7.00;6.00;;;;;11.17;95.13;101369.38;2100503;27;46596;-61
2023/11/26 00:31:55;;;;;;;;;8.25;7.00;;;;;11.18;95.46;101372.94;2104692;28;46332;-60
2023/11/26 00:32:56;;;;;;;;;8.00;6.00;;;;;11.18;95.45;101372.94;2101493;28;46207;-58
2023/11/26 00:33:56;;;;;;;;;7.50;5.25;;;;;11.18;95.40;101372.94;2101858;28;46637;-59
2023/11/26 00:34:56;;;;;;;;;7.50;7.50;;;;;11.18;95.48;101370.28;2096180;28;46220;-60
2023/11/26 00:35:57;;;;;;;;;9.25;7.75;;;;;11.17;95.35;101374.69;2093345;28;46325;-61
2023/11/26 00:36:57;;;;;;;;;7.00;7.00;;;;;11.17;95.50;101372.03;2095021;28;46509;-59
2023/11/26 00:37:58;;;;;;;;;6.00;6.00;;;;;11.18;95.71;101367.63;2094904;28;46664;-59
2023/11/26 00:38:58;;;;;;;;;7.50;6.00;;;;;11.18;95.66;101362.31;2102033;27;46331;-60
2023/11/26 00:39:59;;;;;;;;;7.00;7.00;;;;;11.18;95.66;101360.53;2102889;28;46597;-62
2023/11/26 00:40:59;;;;;;;;;5.75;5.75;;;;;11.20;95.88;101371.13;2101167;27;46806;-59
2023/11/26 00:41:59;;;;;;;;;8.75;8.75;;;;;11.20;95.74;101365.81;2096384;27;46672;-60
2023/11/26 00:43:00;;;;;;;;;12.75;11.25;;;;;11.19;95.85;101364.94;2103767;28;46751;-60
2023/11/26 00:44:00;;;;;;;;;8.25;8.25;;;;;11.18;95.87;101370.28;2103911;28;46738;-58
2023/11/26 00:45:00;;;;;;;;;10.75;9.00;;;;;11.18;95.61;101362.31;2104463;28;46446;-59
2023/11/26 00:46:01;;;;;;;;;9.00;9.00;;;;;11.18;95.67;101367.63;2103752;28;46137;-60
2023/11/26 00:47:01;;;;;;;;;12.75;9.00;;;;;11.17;95.97;101361.41;2107941;27;46411;-62
2023/11/26 00:48:02;;;;;;;;;8.00;8.00;;;;;11.16;95.97;101361.44;2104597;28;46590;-59
2023/11/26 00:49:05;;;;;;;;;6.75;6.75;;;;;11.14;96.01;101369.41;2096152;28;46315;-63
2023/11/26 00:50:08;;;;;;;;;9.20;8.40;;;;;11.13;96.16;101356.16;2095620;28;46532;-60
2023/11/26 00:51:17;;;;;;;;;7.80;7.00;;;;;11.14;96.26;101365.88;2091313;28;47005;-61
2023/11/26 00:52:17;;;;;;;;;7.80;7.40;;;;;11.12;96.16;101365.03;2097148;27;46557;-60
2023/11/26 00:53:17;;;;;;;;;7.00;6.00;;;;;11.13;96.41;101364.13;2110163;27;46372;-61
2023/11/26 00:54:18;;;;;;;;;9.00;7.75;;;;;11.12;96.33;101365.03;2103545;28;46770;-61
2023/11/26 00:55:18;;;;;;;;;8.75;6.25;;;;;11.11;96.41;101360.63;2101968;27;46931;-61
2023/11/26 00:56:20;;;;;;;;;13.50;9.00;;;;;11.10;96.46;101365.06;2104085;28;46388;-60
2023/11/26 00:57:20;;;;;;;;;8.60;7.40;;;;;11.11;96.52;101360.63;2103485;27;46187;-58
2023/11/26 00:58:20;;;;;;;;;11.00;8.25;;;;;11.12;96.49;101355.28;2100812;27;46990;-59
2023/11/26 00:59:21;;;;;;;;;7.00;7.00;;;;;11.10;96.43;101353.56;2101374;27;46545;-59
2023/11/26 01:00:22;;;;;;;;;5.25;5.25;;;;;11.12;96.40;101357.06;2104075;28;46119;-59
2023/11/26 01:01:22;;;;;;;;;5.75;5.75;;;;;11.11;96.62;101358.84;2104634;28;46196;-60
2023/11/26 01:02:23;;;;;;;;;8.25;7.75;;;;;11.09;96.44;101354.47;2104056;28;46720;-60
2023/11/26 01:03:23;;;;;;;;;7.40;7.00;;;;;11.11;96.31;101361.50;2104494;27;46359;-60
2023/11/26 01:04:24;;;;;;;;;6.75;6.75;;;;;11.10;96.51;101357.09;2104582;28;46283;-60
2023/11/26 01:05:24;;;;;;;;;7.00;7.00;;;;;11.11;96.32;101352.66;2104995;27;46373;-60
2023/11/26 01:06:25;;;;;;;;;8.00;8.00;;;;;11.11;96.46;101352.66;2107351;27;46241;-60
2023/11/26 01:07:26;;;;;;;;;8.50;7.50;;;;;11.10;96.33;101349.13;2106319;27;46805;-61
2023/11/26 01:08:26;;;;;;;;;6.50;6.50;;;;;11.11;96.37;101352.66;2099489;27;46431;-60
2023/11/26 01:09:26;;;;;;;;;8.00;7.00;;;;;11.10;96.41;101357.09;2102119;28;46560;-59
2023/11/26 01:10:27;;;;;;;;;5.75;5.75;;;;;11.10;96.46;101348.25;2105156;27;46474;-60
2023/11/26 01:11:27;;;;;;;;;7.00;7.00;;;;;11.07;96.39;101348.28;2105056;27;46761;-60
2023/11/26 01:12:27;;;;;;;;;7.00;6.00;;;;;11.08;96.57;101352.72;2103806;27;46192;-60
2023/11/26 01:13:29;;;;;;;;;10.25;6.75;;;;;11.07;96.66;101354.47;2104839;28;46243;-60
2023/11/26 01:14:30;;;;;;;;;6.00;6.00;;;;;11.07;96.46;101351.81;2104767;27;46327;-60
2023/11/26 01:15:33;;;;;;;;;7.40;6.00;;;;;11.08;96.48;101360.69;2101422;28;46884;-61
2023/11/26 01:16:33;;;;;;;;;6.20;5.40;;;;;11.07;96.55;101349.19;2105257;27;46100;-60
2023/11/26 01:17:35;;;;;;;;;7.00;6.25;;;;;11.08;96.53;101350.94;2104771;28;46217;-60
2023/11/26 01:18:39;;;;;;;;;5.60;5.60;;;;;11.10;96.67;101356.22;2105380;27;46257;-60
2023/11/26 01:19:39;;;;;;;;;7.00;6.00;;;;;11.09;96.66;101346.50;2104967;27;46534;-59
2023/11/26 01:20:39;;;;;;;;;6.25;6.25;;;;;11.09;96.29;101351.81;2099891;28;46187;-59
2023/11/26 01:21:40;;;;;;;;;6.50;6.25;;;;;11.09;96.28;101357.13;2105267;27;46193;-59
2023/11/26 01:22:40;;;;;;;;;9.25;7.00;;;;;11.09;96.42;101354.47;2109337;27;46003;-57
2023/11/26 01:23:41;;;;;;;;;8.25;8.00;;;;;11.08;96.38;101355.38;2103219;27;46641;-59
2023/11/26 01:24:41;;;;;;;;;9.25;8.25;;;;;11.08;96.49;101358.03;2101776;27;46530;-59
2023/11/26 01:25:41;;;;;;;;;8.00;8.00;;;;;11.08;96.74;101350.06;2100918;28;46587;-59
2023/11/26 01:26:42;;;;;;;;;7.25;6.00;;;;;11.08;96.73;101352.72;2101045;28;46004;-60
2023/11/26 01:27:42;;;;;;;;;9.00;7.50;;;;;11.07;96.90;101350.94;2102909;27;46403;-62
2023/11/26 01:28:42;;;;;;;;;15.50;15.25;;;;;11.07;96.80;101350.94;2104011;28;46605;-60
2023/11/26 01:29:43;;;;;;;;;15.00;14.75;;;;;11.08;96.79;101356.25;2103193;27;46883;-61
2023/11/26 01:30:44;;;;;;;;;7.50;7.50;;;;;11.08;97.00;101356.25;2104960;27;46723;-59
2023/11/26 01:31:44;;;;;;;;;8.40;8.00;;;;;11.09;96.82;101354.47;2105003;27;46087;-59
2023/11/26 01:32:45;;;;;;;;;8.50;7.50;;;;;11.08;96.91;101360.69;2104403;27;46064;-59
2023/11/26 01:33:45;;;;;;;;;7.00;7.00;;;;;11.09;96.90;101355.34;2104436;28;46491;-58
2023/11/26 01:34:46;;;;;;;;;5.00;5.00;;;;;11.10;96.65;101353.56;2105385;27;46416;-60
2023/11/26 01:35:46;;;;;;;;;4.00;4.00;;;;;11.10;96.62;101358.88;2104783;27;46578;-60
2023/11/26 01:36:47;;;;;;;;;7.25;7.25;;;;;11.08;96.58;101353.59;2105174;27;46664;-60
2023/11/26 01:37:47;;;;;;;;;11.75;9.75;;;;;11.10;96.62;101364.19;2104899;27;46456;-60
2023/11/26 01:38:47;;;;;;;;;10.00;10.00;;;;;11.10;96.84;101361.53;2106007;27;46916;-59
2023/11/26 01:39:48;;;;;;;;;9.25;6.50;;;;;11.09;96.70;101354.47;2105537;28;46632;-58
2023/11/26 01:40:48;;;;;;;;;7.75;6.50;;;;;11.10;96.92;101361.53;2105088;27;47260;-60
2023/11/26 01:41:48;;;;;;;;;8.00;6.75;;;;;11.10;96.73;101357.09;2104513;28;46597;-58
2023/11/26 01:42:48;;;;;;;;;8.00;7.00;;;;;11.09;96.92;101358.00;2105667;28;46320;-60
2023/11/26 01:43:49;;;;;;;;;7.50;7.25;;;;;11.09;96.82;101358.00;2104903;28;46197;-58
2023/11/26 01:44:50;;;;;;;;;5.00;5.00;;;;;11.08;96.93;101355.38;2103587;28;46383;-58
2023/11/26 01:46:00;;;;;;;;;7.50;6.50;;;;;11.07;97.03;101354.47;2101878;28;46315;-61
2023/11/26 01:47:04;;;;;;;;;7.00;7.00;;;;;11.06;96.95;101357.16;2101079;28;46515;-60
2023/11/26 01:48:04;;;;;;;;;7.40;7.00;;;;;11.05;97.15;101353.63;2104549;28;46730;-60
2023/11/26 01:49:06;;;;;;;;;7.75;7.75;;;;;11.05;97.27;101355.38;2111984;27;46534;-61
2023/11/26 01:50:09;;;;;;;;;11.20;7.80;;;;;11.05;97.39;101353.63;2105103;27;46591;-58
2023/11/26 01:51:11;;;;;;;;;8.80;7.00;;;;;11.06;97.40;101351.84;2086924;28;46717;-59
2023/11/26 01:52:14;;;;;;;;;10.00;10.00;;;;;11.03;97.62;101350.09;2087993;28;46358;-60
2023/11/26 01:53:15;;;;;;;;;12.40;11.20;;;;;11.02;97.61;101351.00;2104353;28;46150;-59
2023/11/26 01:54:15;;;;;;;;;10.00;9.00;;;;;11.03;97.45;101347.44;2104531;28;47359;-60
2023/11/26 01:55:19;;;;;;;;;8.00;7.00;;;;;11.05;97.30;101347.41;2106109;27;46373;-58
2023/11/26 01:56:21;;;;;;;;;6.00;6.00;;;;;11.05;97.42;101352.72;2104931;28;46613;-60
2023/11/26 01:57:22;;;;;;;;;5.60;4.00;;;;;11.05;97.47;101352.72;2104905;28;46440;-60
2023/11/26 01:58:22;;;;;;;;;5.00;5.00;;;;;11.03;97.61;101362.50;2105061;27;46710;-59
2023/11/26 01:59:23;;;;;;;;;6.00;4.25;;;;;11.05;97.60;101355.38;2104833;28;46624;-59
2023/11/26 02:00:24;;;;;;;;;5.50;5.00;;;;;11.03;97.56;101352.75;2104502;28;46695;-59
2023/11/26 02:01:25;;;;;;;;;4.00;4.00;;;;;11.05;97.49;101353.63;2104995;27;46170;-59
2023/11/26 02:02:25;;;;;;;;;5.80;5.80;;;;;11.06;97.27;101357.16;2101700;27;46450;-58
2023/11/26 02:03:26;;;;;;;;;5.00;5.00;;;;;11.05;97.43;101352.72;2106457;27;46116;-60
2023/11/26 02:04:26;;;;;;;;;5.25;5.25;;;;;11.06;97.46;101349.19;2104852;27;46491;-62
2023/11/26 02:05:26;;;;;;;;;6.00;6.00;;;;;11.03;97.11;101347.44;2104387;28;46235;-59
2023/11/26 02:06:27;;;;;;;;;7.50;5.50;;;;;11.03;97.35;101347.44;2104635;27;46611;-60
2023/11/26 02:07:27;;;;;;;;;5.75;5.00;;;;;11.03;97.34;101352.75;2104135;27;46574;-61
2023/11/26 02:08:28;;;;;;;;;6.50;6.00;;;;;11.03;97.62;101354.53;2105479;27;46449;-60
2023/11/26 02:09:28;;;;;;;;;6.75;5.25;;;;;11.05;97.37;101352.72;2104900;28;45587;-58
2023/11/26 02:10:28;;;;;;;;;6.00;5.50;;;;;11.03;97.35;101352.75;2104955;27;46562;-59
2023/11/26 02:11:30;;;;;;;;;6.50;5.50;;;;;11.04;97.34;101348.31;2101443;28;46714;-61
2023/11/26 02:12:30;;;;;;;;;3.00;3.00;;;;;11.02;97.49;101355.44;2104065;28;46916;-61
2023/11/26 02:13:31;;;;;;;;;7.00;5.25;;;;;11.02;97.68;101358.09;2104500;28;46481;-59
2023/11/26 02:14:31;;;;;;;;;7.00;7.00;;;;;11.01;97.53;101359.88;2105019;28;46763;-60
2023/11/26 02:15:33;;;;;;;;;6.00;4.25;;;;;11.02;97.81;101360.75;2105633;27;46818;-60
2023/11/26 02:16:33;;;;;;;;;5.00;5.00;;;;;11.00;97.54;101357.22;2096808;28;46410;-57
2023/11/26 02:17:35;;;;;;;;;4.00;4.00;;;;;11.01;97.49;101353.69;2104854;27;46941;-60
2023/11/26 02:18:35;;;;;;;;;5.60;5.00;;;;;11.01;97.54;101351.91;2103756;27;46684;-59
2023/11/26 02:19:38;;;;;;;;;7.00;6.25;;;;;11.00;97.34;101347.50;2103004;28;46536;-62
2023/11/26 02:20:38;;;;;;;;;4.60;4.60;;;;;11.01;97.59;101359.88;2104089;28;46600;-58
2023/11/26 02:21:39;;;;;;;;;5.50;5.50;;;;;11.01;97.33;101354.56;2104698;28;46913;-59
2023/11/26 02:22:39;;;;;;;;;5.00;5.00;;;;;11.02;97.58;101350.13;2104768;27;46751;-59
2023/11/26 02:23:40;;;;;;;;;6.75;4.25;;;;;11.02;97.67;101361.63;2104949;28;46295;-59
2023/11/26 02:24:45;;;;;;;;;3.60;2.20;;;;;11.01;97.74;101354.56;2105047;27;45488;-61
2023/11/26 02:25:45;;;;;;;;;4.75;4.75;;;;;10.99;97.65;101359.00;2105036;27;46431;-58
2023/11/26 02:26:45;;;;;;;;;6.00;6.00;;;;;10.99;97.59;101360.78;2105197;27;46460;-59
2023/11/26 02:27:46;;;;;;;;;9.00;5.00;;;;;10.98;97.77;101351.94;2104053;28;46748;-60
2023/11/26 02:28:47;;;;;;;;;6.00;5.00;;;;;10.98;97.45;101359.03;2103802;28;46416;-58
2023/11/26 02:29:47;;;;;;;;;7.00;5.00;;;;;10.98;97.72;101356.38;2104778;27;46307;-59
2023/11/26 02:30:47;;;;;;;;;6.00;6.00;;;;;10.98;97.83;101359.91;2104839;27;46161;-59
2023/11/26 02:31:48;;;;;;;;;4.25;4.00;;;;;10.98;97.92;101364.34;2104426;27;46801;-60
2023/11/26 02:32:48;;;;;;;;;6.50;5.50;;;;;10.98;97.66;101361.69;2104884;27;46540;-60
2023/11/26 02:33:49;;;;;;;;;6.25;6.25;;;;;10.97;97.75;101358.16;2104461;27;46955;-58
2023/11/26 02:34:49;;;;;;;;;4.33;4.00;;;;;10.97;97.82;101359.94;2108887;27;46472;-59
2023/11/26 02:35:49;;;;;;;;;5.00;5.00;;;;;10.97;98.08;101358.16;2106687;27;46422;-59
2023/11/26 02:36:49;;;;;;;;;6.00;6.00;;;;;10.97;97.77;101360.81;2102401;28;46443;-58
2023/11/26 02:37:50;;;;;;;;;5.67;5.00;;;;;10.98;97.64;101356.38;2104531;28;46344;-60
2023/11/26 02:38:52;;;;;;;;;8.00;7.00;;;;;10.97;97.55;101363.47;2104448;27;46909;-60
2023/11/26 02:39:52;;;;;;;;;4.00;4.00;;;;;10.96;97.76;101358.19;2103964;28;46379;-59
2023/11/26 02:40:53;;;;;;;;;5.67;4.67;;;;;10.97;97.97;101362.59;2104229;28;46183;-59
2023/11/26 02:41:53;;;;;;;;;8.00;5.67;;;;;10.94;97.50;101359.97;2104740;27;46879;-60
2023/11/26 02:42:56;;;;;;;;;5.67;5.00;;;;;10.96;97.68;101356.41;2104978;27;46281;-60
2023/11/26 02:43:56;;;;;;;;;7.25;5.00;;;;;10.97;97.91;101352.84;2104828;27;46808;-59
2023/11/26 02:44:57;;;;;;;;;4.67;4.67;;;;;10.98;97.93;101354.59;2103554;28;46440;-60
2023/11/26 02:45:58;;;;;;;;;4.00;4.00;;;;;11.00;97.79;101354.56;2097239;28;47152;-61
2023/11/26 02:46:58;;;;;;;;;5.00;5.00;;;;;11.00;97.83;101351.91;2104958;27;46579;-60
2023/11/26 02:47:58;;;;;;;;;5.25;5.25;;;;;11.00;97.77;101349.25;2104595;27;46291;-60
2023/11/26 02:48:58;;;;;;;;;5.25;5.25;;;;;11.00;97.75;101357.22;2104703;28;46228;-61
2023/11/26 02:49:59;;;;;;;;;6.25;4.75;;;;;11.00;97.96;101362.53;2104629;28;46483;-60
2023/11/26 02:50:59;;;;;;;;;4.33;4.33;;;;;10.99;97.92;101353.69;2104564;28;46278;-59
2023/11/26 02:51:59;;;;;;;;;7.00;5.67;;;;;10.98;97.99;101357.25;2104453;28;46220;-57
2023/11/26 02:53:00;;;;;;;;;5.00;5.00;;;;;11.00;97.99;101359.88;2102930;28;46389;-59
2023/11/26 02:54:00;;;;;;;;;7.00;7.00;;;;;11.00;97.88;101366.06;2104881;28;46900;-59
2023/11/26 02:55:01;;;;;;;;;5.00;5.00;;;;;10.99;97.92;101364.31;2102999;27;46497;-59
2023/11/26 02:56:02;;;;;;;;;5.00;5.00;;;;;10.99;97.71;101363.44;2105345;27;46741;-60
2023/11/26 02:57:02;;;;;;;;;5.67;4.67;;;;;10.99;97.60;101363.44;2107173;27;46882;-60
2023/11/26 02:58:03;;;;;;;;;5.33;4.00;;;;;11.01;97.92;101359.88;2104666;28;46376;-58
2023/11/26 02:59:03;;;;;;;;;7.00;4.00;;;;;11.02;97.49;101355.44;2096365;28;46608;-59
2023/11/26 03:00:15;;;;;;;;;7.67;6.00;;;;;11.03;97.73;101357.19;2099472;28;46785;-59
2023/11/26 03:01:17;;;;;;;;;5.75;5.75;;;;;11.02;97.42;101352.78;2094849;28;46929;-59
2023/11/26 03:02:18;;;;;;;;;4.75;4.00;;;;;11.02;97.56;101358.09;2095451;28;46414;-60
2023/11/26 03:03:19;;;;;;;;;6.67;4.33;;;;;10.97;97.56;101351.97;2094854;28;46316;-60
2023/11/26 03:04:21;;;;;;;;;5.00;5.00;;;;;10.98;97.66;101351.06;2095486;28;46516;-60
2023/11/26 03:05:21;;;;;;;;;5.00;3.25;;;;;10.96;97.76;101347.56;2095149;28;46507;-59
2023/11/26 03:06:26;;;;;;;;;6.00;6.00;;;;;10.99;97.93;101352.81;2092467;28;45504;-59
2023/11/26 03:07:27;;;;;;;;;5.50;5.50;;;;;10.96;97.45;101351.09;2098775;28;46910;-56
2023/11/26 03:08:32;;;;;;;;;5.75;4.75;;;;;10.96;97.67;101347.56;2095422;28;46715;-60
2023/11/26 03:13:20;;;;;;;;;10.60;9.00;;;;;10.94;97.85;101354.66;2095042;28;46564;-60
2023/11/26 03:14:21;;;;;;;;;10.60;10.60;;;;;10.91;97.80;101347.59;2095037;28;46453;-60
2023/11/26 03:15:21;;;;;;;;;9.75;9.00;;;;;10.93;97.90;101350.25;2094377;28;46238;-59
2023/11/26 03:16:26;;;;;;;;;8.00;8.00;;;;;10.88;97.81;101352.94;2086490;28;45841;-59
2023/11/26 03:17:26;;;;;;;;;10.20;10.00;;;;;10.86;97.77;101347.66;2090936;28;46408;-58
2023/11/26 03:18:26;;;;;;;;;10.50;8.00;;;;;10.84;97.93;101354.78;2100521;28;46667;-59
2023/11/26 03:19:26;;;;;;;;;9.00;8.00;;;;;10.87;98.35;101346.78;2096553;28;46579;-59
2023/11/26 03:20:27;;;;;;;;;8.75;8.75;;;;;10.86;98.31;101352.09;2096330;28;46307;-60
2023/11/26 03:21:28;;;;;;;;;10.50;10.50;;;;;10.86;98.14;101342.34;2096692;28;45393;-60
2023/11/26 03:22:29;;;;;;;;;7.60;7.60;;;;;10.87;98.33;101344.13;2096216;28;46512;-59
2023/11/26 03:23:30;;;;;;;;;14.00;12.25;;;;;10.87;98.13;101346.78;2088311;28;46744;-60
2023/11/26 03:24:31;;;;;;;;;9.60;8.80;;;;;10.87;98.08;101345.88;2088333;28;46345;-59
2023/11/26 03:25:33;;;;;;;;;14.25;14.25;;;;;10.87;98.20;101345.88;2096496;28;46391;-58
2023/11/26 03:26:33;;;;;;;;;10.20;8.80;;;;;10.87;97.95;101340.59;2096171;28;46460;-57
2023/11/26 03:27:33;;;;;;;;;17.00;12.50;;;;;10.89;98.28;101344.09;2095076;28;46729;-59
2023/11/26 03:28:34;;;;;;;;;11.25;10.25;;;;;10.93;97.97;101339.63;2095829;28;46492;-59
2023/11/26 03:29:34;;;;;;;;;18.60;17.60;;;;;10.94;97.73;101341.41;2090208;28;46347;-61
2023/11/26 03:30:35;;;;;;;;;12.25;11.75;;;;;10.91;98.05;101340.50;2093209;28;46966;-60
2023/11/26 03:31:36;;;;;;;;;14.00;13.25;;;;;10.93;97.85;101345.81;2105569;27;45630;-60
2023/11/26 03:32:37;;;;;;;;;12.00;11.50;;;;;10.94;97.57;101342.28;2101435;27;46124;-59
2023/11/26 03:33:38;;;;;;;;;10.75;10.75;;;;;10.92;97.75;101346.69;2103725;28;46076;-59
2023/11/26 03:34:38;;;;;;;;;15.75;12.00;;;;;10.91;97.68;101343.16;2106267;27;46220;-57
2023/11/26 03:35:38;;;;;;;;;11.50;10.00;;;;;10.91;97.73;101342.28;2105993;28;46362;-60
2023/11/26 03:36:41;;;;;;;;;15.50;14.00;;;;;10.93;97.52;101344.94;2105686;27;46150;-58
2023/11/26 03:37:41;;;;;;;;;13.60;13.40;;;;;10.93;97.65;101342.28;2106075;27;46555;-59
2023/11/26 03:38:42;;;;;;;;;18.25;15.00;;;;;10.93;97.45;101339.63;2104599;27;46265;-59
2023/11/26 03:39:45;;;;;;;;;9.00;7.80;;;;;10.96;97.78;101343.13;2105129;28;46703;-57
2023/11/26 03:40:45;;;;;;;;;12.40;11.40;;;;;10.96;97.35;101342.25;2097538;28;45893;-59
2023/11/26 03:41:48;;;;;;;;;14.50;13.00;;;;;10.97;97.60;101341.34;2096680;28;46591;-60
2023/11/26 03:42:48;;;;;;;;;13.20;11.60;;;;;10.97;97.79;101341.34;2105048;28;47108;-57
2023/11/26 03:43:49;;;;;;;;;11.25;11.25;;;;;10.97;97.85;101342.22;2104827;27;47177;-60
2023/11/26 03:44:50;;;;;;;;;8.20;6.60;;;;;10.99;97.61;101342.19;2105528;27;46435;-57
2023/11/26 03:45:51;;;;;;;;;11.00;9.25;;;;;11.00;97.66;101347.50;2105973;28;46605;-60
2023/11/26 03:46:51;;;;;;;;;11.60;9.40;;;;;10.96;97.79;101343.13;2105585;27;46401;-59
2023/11/26 03:47:52;;;;;;;;;11.00;11.00;;;;;10.95;97.88;101341.38;2105104;28;46828;-60
2023/11/26 03:48:52;;;;;;;;;9.00;9.00;;;;;10.93;97.91;101343.16;2104921;28;46689;-57
2023/11/26 03:49:52;;;;;;;;;8.50;8.00;;;;;10.94;97.84;101341.41;2104445;27;46292;-59
2023/11/26 03:50:53;;;;;;;;;7.00;7.00;;;;;10.97;97.85;101341.34;2105690;27;46207;-58
2023/11/26 03:51:53;;;;;;;;;6.33;5.00;;;;;10.95;97.72;101338.72;2112329;27;46480;-59
2023/11/26 03:52:55;;;;;;;;;7.00;7.00;;;;;10.96;97.66;101342.25;2110434;27;46846;-60
2023/11/26 03:53:55;;;;;;;;;8.25;4.50;;;;;10.97;97.55;101336.91;2105556;27;46280;-57
2023/11/26 03:54:56;;;;;;;;;5.00;5.00;;;;;10.97;97.50;101341.34;2105871;27;46383;-58
2023/11/26 03:55:56;;;;;;;;;5.33;5.33;;;;;10.97;97.31;101344.88;2105600;27;46047;-59
2023/11/26 03:56:56;;;;;;;;;6.00;5.67;;;;;10.96;97.36;101340.47;2105905;27;46298;-59
2023/11/26 03:57:57;;;;;;;;;6.00;6.00;;;;;10.96;97.34;101332.50;2105658;27;46684;-59
2023/11/26 03:58:57;;;;;;;;;5.00;5.00;;;;;10.94;97.33;101336.09;2105260;27;46850;-59
2023/11/26 03:59:58;;;;;;;;;6.00;6.00;;;;;10.94;97.30;101336.09;2112902;27;46337;-62
2023/11/26 04:00:58;;;;;;;;;6.67;5.00;;;;;10.90;97.36;101338.75;2105231;27;46858;-60
2023/11/26 04:01:58;;;;;;;;;6.33;6.33;;;;;10.90;97.43;101340.53;2105171;28;46641;-58
2023/11/26 04:02:59;;;;;;;;;7.00;5.33;;;;;10.89;97.37;101341.44;2105539;27;46526;-60
2023/11/26 04:03:59;;;;;;;;;5.00;5.00;;;;;10.88;97.44;101335.25;2105095;28;46556;-58
2023/11/26 04:04:59;;;;;;;;;4.33;4.00;;;;;10.88;97.45;101334.38;2105022;28;46505;-59
2023/11/26 04:06:00;;;;;;;;;6.33;5.00;;;;;10.87;97.34;101337.91;2105675;27;46515;-58
2023/11/26 04:07:01;;;;;;;;;6.00;4.75;;;;;10.86;97.52;101339.69;2101589;28;46827;-58
2023/11/26 04:08:02;;;;;;;;;5.00;5.00;;;;;10.86;97.63;101346.78;2099513;27;47124;-58
2023/11/26 04:09:03;;;;;;;;;5.67;5.33;;;;;10.85;97.84;101337.06;2105847;27;46465;-59
2023/11/26 04:10:04;;;;;;;;;5.50;3.25;;;;;10.84;97.83;101346.81;2105440;27;46184;-60
2023/11/26 04:11:05;;;;;;;;;5.50;5.50;;;;;10.82;97.76;101332.69;2105801;27;46624;-58
2023/11/26 04:12:07;;;;;;;;;8.33;6.00;;;;;10.83;98.02;101334.44;2095537;28;46106;-60
2023/11/26 04:13:07;;;;;;;;;4.50;4.50;;;;;10.82;97.89;101334.47;2096186;28;46167;-60
2023/11/26 04:14:08;;;;;;;;;5.00;4.00;;;;;10.81;98.07;101332.72;2096039;28;46338;-60
2023/11/26 04:15:09;;;;;;;;;7.00;7.00;;;;;10.82;97.84;101338.00;2095980;28;46576;-59
2023/11/26 04:16:11;;;;;;;;;4.33;4.33;;;;;10.80;97.93;101334.50;2096299;28;46420;-57
2023/11/26 04:17:11;;;;;;;;;6.00;4.00;;;;;10.81;98.00;101336.25;2096227;28;46882;-58
2023/11/26 04:18:13;;;;;;;;;5.00;4.00;;;;;10.80;97.90;101330.94;2094418;28;46555;-60
2023/11/26 04:19:13;;;;;;;;;4.50;4.50;;;;;10.75;98.18;101336.31;2096660;28;46771;-59
2023/11/26 04:20:13;;;;;;;;;7.75;6.25;;;;;10.73;98.19;101335.44;2096038;28;46890;-58
2023/11/26 04:21:14;;;;;;;;;5.00;5.00;;;;;10.73;98.49;101335.44;2095205;28;45364;-58
2023/11/26 04:22:14;;;;;;;;;5.00;5.00;;;;;10.72;98.36;101333.69;2096012;28;46172;-59
2023/11/26 04:23:15;;;;;;;;;6.33;6.33;;;;;10.72;98.58;101328.38;2096254;28;46465;-60
2023/11/26 04:24:15;;;;;;;;;5.00;4.00;;;;;10.75;98.86;101333.66;2094172;28;46263;-59
2023/11/26 04:25:16;;;;;;;;;9.33;5.67;;;;;10.75;98.63;101331.00;2095591;28;46610;-60
2023/11/26 04:26:16;;;;;;;;;6.33;6.33;;;;;10.75;98.84;101331.00;2095970;28;46617;-59
2023/11/26 04:27:17;;;;;;;;;4.67;4.67;;;;;10.74;98.58;101326.59;2087861;28;46382;-58
2023/11/26 04:28:18;;;;;;;;;6.25;5.00;;;;;10.74;98.95;101333.66;2087564;28;46900;-60
2023/11/26 04:29:18;;;;;;;;;5.67;5.00;;;;;10.73;98.87;101334.56;2095532;28;46669;-58
2023/11/26 04:30:18;;;;;;;;;7.33;6.00;;;;;10.72;98.70;101331.03;2096397;28;46437;-57
2023/11/26 04:31:19;;;;;;;;;7.33;7.00;;;;;10.69;99.07;101332.84;2091499;28;46326;-59
2023/11/26 04:32:19;;;;;;;;;4.67;4.67;;;;;10.71;98.98;101328.41;2093524;28;46161;-60
2023/11/26 04:33:20;;;;;;;;;6.00;6.00;;;;;10.71;99.23;101326.63;2086106;28;46433;-58
2023/11/26 04:34:20;;;;;;;;;8.00;7.75;;;;;10.73;99.17;101332.78;2087418;28;46256;-60
2023/11/26 04:35:20;;;;;;;;;8.25;6.25;;;;;10.67;99.12;101330.22;2095704;28;46433;-58
2023/11/26 04:36:21;;;;;;;;;10.75;8.25;;;;;10.67;99.60;101332.88;2096202;28;46633;-58
2023/11/26 04:37:21;;;;;;;;;10.75;10.75;;;;;10.71;99.47;101326.63;2095730;28;46466;-59
2023/11/26 04:38:21;;;;;;;;;21.75;12.00;;;;;10.64;99.61;101327.59;2096116;28;44997;-58
2023/11/26 04:39:22;;;;;;;;;15.25;14.00;;;;;10.65;99.59;101328.47;2095441;28;46814;-59
2023/11/26 04:40:22;;;;;;;;;16.00;15.00;;;;;10.64;99.79;101322.28;2096138;28;46447;-58
2023/11/26 04:41:23;;;;;;;;;10.50;10.00;;;;;10.65;99.69;101321.38;2096088;28;46853;-59
2023/11/26 04:42:24;;;;;;;;;25.00;21.75;;;;;10.67;100.00;101327.56;2096102;28;47001;-58
2023/11/26 04:43:24;;;;;;;;;22.00;19.00;;;;;10.67;99.97;101334.63;2096649;28;46661;-58
2023/11/26 04:44:24;;;;;;;;;23.00;20.50;;;;;10.67;100.00;101331.97;2104370;27;46366;-60
2023/11/26 04:45:24;;;;;;;;;24.75;18.50;;;;;10.66;99.84;101331.09;2098423;28;45413;-58